sensor_id;sensor_type;location;lat;lon;timestamp;temperature;humidity
44463;DHT22;30170;52.190;8.702;2022-11-20T00:03:36;-6.10;99.90
44463;DHT22;30170;52.190;8.702;2022-11-20T00:06:03;-6.30;99.90
44463;DHT22;30170;52.190;8.702;2022-11-20T00:08:30;-6.10;99.90
44463;DHT22;30170;52.190;8.702;2022-11-20T00:10:57;-6.40;99.90
44463;DHT22;30170;52.190;8.702;2022-11-20T00:13:24;-5.90;99.90
44463;DHT22;30170;52.190;8.702;2022-11-20T00:15:56;-6.40;99.90
44463;DHT22;30170;52.190;8.702;2022-11-20T00:18:22;-6.40;99.90
44463;DHT22;30170;52.190;8.702;2022-11-20T00:20:49;-6.50;99.90
44463;DHT22;30170;52.190;8.702;2022-11-20T00:23:16;-6.40;99.90
44463;DHT22;30170;52.190;8.702;2022-11-20T00:25:42;-6.40;99.90
44463;DHT22;30170;52.190;8.702;2022-11-20T00:28:09;-6.40;99.90
44463;DHT22;30170;52.190;8.702;2022-11-20T00:30:36;-6.60;99.90
44463;DHT22;30170;52.190;8.702;2022-11-20T00:33:02;-6.60;99.90
44463;DHT22;30170;52.190;8.702;2022-11-20T00:35:29;-6.80;99.90
44463;DHT22;30170;52.190;8.702;2022-11-20T00:37:56;-6.50;99.90
44463;DHT22;30170;52.190;8.702;2022-11-20T00:40:22;-6.60;99.90
44463;DHT22;30170;52.190;8.702;2022-11-20T00:42:49;-6.90;99.90
44463;DHT22;30170;52.190;8.702;2022-11-20T00:45:16;-6.70;99.90
44463;DHT22;30170;52.190;8.702;2022-11-20T00:47:42;-6.60;99.90
44463;DHT22;30170;52.190;8.702;2022-11-20T00:50:09;-6.60;99.90
44463;DHT22;30170;52.190;8.702;2022-11-20T00:52:36;-6.60;99.90
44463;DHT22;30170;52.190;8.702;2022-11-20T00:55:02;-6.50;99.90
44463;DHT22;30170;52.190;8.702;2022-11-20T00:57:29;-6.20;99.90
44463;DHT22;30170;52.190;8.702;2022-11-20T00:59:56;-6.40;99.90
44463;DHT22;30170;52.190;8.702;2022-11-20T01:02:23;-6.40;99.90
44463;DHT22;30170;52.190;8.702;2022-11-20T01:04:49;-6.50;99.90
44463;DHT22;30170;52.190;8.702;2022-11-20T01:07:16;-6.40;99.90
44463;DHT22;30170;52.190;8.702;2022-11-20T01:09:43;-4.70;99.90
44463;DHT22;30170;52.190;8.702;2022-11-20T01:12:09;-6.70;99.90
44463;DHT22;30170;52.190;8.702;2022-11-20T01:14:36;-6.60;99.90
44463;DHT22;30170;52.190;8.702;2022-11-20T01:17:03;-6.70;99.90
44463;DHT22;30170;52.190;8.702;2022-11-20T01:19:29;-6.60;99.90
44463;DHT22;30170;52.190;8.702;2022-11-20T01:21:56;-6.90;99.90
44463;DHT22;30170;52.190;8.702;2022-11-20T01:24:23;-6.80;99.90
44463;DHT22;30170;52.190;8.702;2022-11-20T01:26:50;-6.50;99.90
44463;DHT22;30170;52.190;8.702;2022-11-20T01:29:18;-6.60;99.90
44463;DHT22;30170;52.190;8.702;2022-11-20T01:31:46;-5.90;99.90
44463;DHT22;30170;52.190;8.702;2022-11-20T01:34:13;-6.60;99.90
44463;DHT22;30170;52.190;8.702;2022-11-20T01:36:41;-6.40;99.90
44463;DHT22;30170;52.190;8.702;2022-11-20T01:39:12;-6.50;99.90
44463;DHT22;30170;52.190;8.702;2022-11-20T01:41:39;-6.50;99.90
44463;DHT22;30170;52.190;8.702;2022-11-20T01:47:10;-6.90;99.90
44463;DHT22;30170;52.190;8.702;2022-11-20T01:49:42;-6.90;99.90
44463;DHT22;30170;52.190;8.702;2022-11-20T01:52:32;-7.00;99.90
44463;DHT22;30170;52.190;8.702;2022-11-20T01:54:59;-7.00;99.90
44463;DHT22;30170;52.190;8.702;2022-11-20T01:57:27;-6.90;99.90
44463;DHT22;30170;52.190;8.702;2022-11-20T01:59:56;-6.70;99.90
44463;DHT22;30170;52.190;8.702;2022-11-20T02:02:25;-6.90;99.90
44463;DHT22;30170;52.190;8.702;2022-11-20T02:04:52;-6.70;99.90
44463;DHT22;30170;52.190;8.702;2022-11-20T02:07:20;-6.70;99.90
44463;DHT22;30170;52.190;8.702;2022-11-20T02:09:47;-6.80;99.90
44463;DHT22;30170;52.190;8.702;2022-11-20T02:12:14;-6.90;99.90
44463;DHT22;30170;52.190;8.702;2022-11-20T02:15:00;-7.00;99.90
44463;DHT22;30170;52.190;8.702;2022-11-20T02:17:27;-7.10;99.90
44463;DHT22;30170;52.190;8.702;2022-11-20T02:19:54;-7.10;99.90
44463;DHT22;30170;52.190;8.702;2022-11-20T02:22:24;-7.10;99.90
44463;DHT22;30170;52.190;8.702;2022-11-20T02:24:55;-7.00;99.90
44463;DHT22;30170;52.190;8.702;2022-11-20T02:27:23;-7.00;99.90
44463;DHT22;30170;52.190;8.702;2022-11-20T02:32:18;-7.10;99.90
44463;DHT22;30170;52.190;8.702;2022-11-20T02:34:44;-7.00;99.90
44463;DHT22;30170;52.190;8.702;2022-11-20T02:37:11;-7.20;99.90
44463;DHT22;30170;52.190;8.702;2022-11-20T02:39:38;-7.00;99.90
44463;DHT22;30170;52.190;8.702;2022-11-20T02:42:05;-7.00;99.90
44463;DHT22;30170;52.190;8.702;2022-11-20T02:44:32;-7.00;99.90
44463;DHT22;30170;52.190;8.702;2022-11-20T02:46:58;-7.00;99.90
44463;DHT22;30170;52.190;8.702;2022-11-20T02:49:25;-7.00;99.90
44463;DHT22;30170;52.190;8.702;2022-11-20T02:51:52;-7.00;99.90
44463;DHT22;30170;52.190;8.702;2022-11-20T02:54:19;-5.10;99.90
44463;DHT22;30170;52.190;8.702;2022-11-20T02:56:45;-7.00;99.90
44463;DHT22;30170;52.190;8.702;2022-11-20T02:59:12;-7.00;99.90
44463;DHT22;30170;52.190;8.702;2022-11-20T03:01:39;-6.90;99.90
44463;DHT22;30170;52.190;8.702;2022-11-20T03:04:05;-7.00;99.90
44463;DHT22;30170;52.190;8.702;2022-11-20T03:06:32;-7.10;99.90
44463;DHT22;30170;52.190;8.702;2022-11-20T03:08:59;-7.20;99.90
44463;DHT22;30170;52.190;8.702;2022-11-20T03:11:25;-6.50;99.90
44463;DHT22;30170;52.190;8.702;2022-11-20T03:13:52;-6.80;99.90
44463;DHT22;30170;52.190;8.702;2022-11-20T03:16:19;-7.70;99.90
44463;DHT22;30170;52.190;8.702;2022-11-20T03:18:46;-7.40;99.90
44463;DHT22;30170;52.190;8.702;2022-11-20T03:21:13;-7.30;99.90
44463;DHT22;30170;52.190;8.702;2022-11-20T03:23:40;-5.80;99.90
44463;DHT22;30170;52.190;8.702;2022-11-20T03:26:25;-7.30;99.90
44463;DHT22;30170;52.190;8.702;2022-11-20T03:28:57;-7.10;99.90
44463;DHT22;30170;52.190;8.702;2022-11-20T03:31:25;-7.00;99.90
44463;DHT22;30170;52.190;8.702;2022-11-20T03:33:52;-7.10;99.90
44463;DHT22;30170;52.190;8.702;2022-11-20T03:36:20;-7.10;99.90
44463;DHT22;30170;52.190;8.702;2022-11-20T03:38:47;-7.10;99.90
44463;DHT22;30170;52.190;8.702;2022-11-20T03:41:15;-7.30;99.90
44463;DHT22;30170;52.190;8.702;2022-11-20T03:43:42;-7.10;99.90
44463;DHT22;30170;52.190;8.702;2022-11-20T03:46:13;-7.30;99.90
44463;DHT22;30170;52.190;8.702;2022-11-20T03:48:39;-7.20;99.90
44463;DHT22;30170;52.190;8.702;2022-11-20T03:51:10;-6.30;99.90
44463;DHT22;30170;52.190;8.702;2022-11-20T03:53:38;-7.10;99.90
44463;DHT22;30170;52.190;8.702;2022-11-20T03:56:05;-7.50;99.90
44463;DHT22;30170;52.190;8.702;2022-11-20T03:58:33;-7.20;99.90
44463;DHT22;30170;52.190;8.702;2022-11-20T04:01:04;-7.50;99.90
44463;DHT22;30170;52.190;8.702;2022-11-20T04:03:30;-7.40;99.90
44463;DHT22;30170;52.190;8.702;2022-11-20T04:06:04;-7.60;99.90
44463;DHT22;30170;52.190;8.702;2022-11-20T04:08:31;-7.30;99.90
44463;DHT22;30170;52.190;8.702;2022-11-20T04:13:55;-7.30;99.90
44463;DHT22;30170;52.190;8.702;2022-11-20T04:16:22;-7.40;99.90
44463;DHT22;30170;52.190;8.702;2022-11-20T04:18:53;-5.70;99.90
44463;DHT22;30170;52.190;8.702;2022-11-20T04:21:20;-7.20;99.90
44463;DHT22;30170;52.190;8.702;2022-11-20T04:23:47;-7.30;99.90
44463;DHT22;30170;52.190;8.702;2022-11-20T04:26:14;-7.10;99.90
44463;DHT22;30170;52.190;8.702;2022-11-20T04:28:41;-7.30;99.90
44463;DHT22;30170;52.190;8.702;2022-11-20T04:31:08;-7.50;99.90
44463;DHT22;30170;52.190;8.702;2022-11-20T04:33:35;-7.40;99.90
44463;DHT22;30170;52.190;8.702;2022-11-20T04:36:03;-7.50;99.90
44463;DHT22;30170;52.190;8.702;2022-11-20T04:38:30;-7.50;99.90
44463;DHT22;30170;52.190;8.702;2022-11-20T04:41:01;-7.40;99.90
44463;DHT22;30170;52.190;8.702;2022-11-20T04:43:28;-7.10;99.90
44463;DHT22;30170;52.190;8.702;2022-11-20T04:45:55;-7.40;99.90
44463;DHT22;30170;52.190;8.702;2022-11-20T04:48:22;-7.10;99.90
44463;DHT22;30170;52.190;8.702;2022-11-20T04:50:49;-7.40;99.90
44463;DHT22;30170;52.190;8.702;2022-11-20T04:53:16;-7.40;99.90
44463;DHT22;30170;52.190;8.702;2022-11-20T04:55:43;-7.50;99.90
44463;DHT22;30170;52.190;8.702;2022-11-20T04:58:10;-7.70;99.90
44463;DHT22;30170;52.190;8.702;2022-11-20T05:00:36;-7.50;99.90
44463;DHT22;30170;52.190;8.702;2022-11-20T05:03:03;-7.80;99.90
44463;DHT22;30170;52.190;8.702;2022-11-20T05:05:30;-5.90;99.90
44463;DHT22;30170;52.190;8.702;2022-11-20T05:07:57;-7.60;99.90
44463;DHT22;30170;52.190;8.702;2022-11-20T05:10:27;-7.40;99.90
44463;DHT22;30170;52.190;8.702;2022-11-20T05:12:53;-7.50;99.90
44463;DHT22;30170;52.190;8.702;2022-11-20T05:15:20;-7.20;99.90
44463;DHT22;30170;52.190;8.702;2022-11-20T05:17:50;-7.20;99.90
44463;DHT22;30170;52.190;8.702;2022-11-20T05:20:17;-7.10;99.90
44463;DHT22;30170;52.190;8.702;2022-11-20T05:22:44;-7.20;99.90
44463;DHT22;30170;52.190;8.702;2022-11-20T05:25:11;-7.10;99.90
44463;DHT22;30170;52.190;8.702;2022-11-20T05:27:38;-7.10;99.90
44463;DHT22;30170;52.190;8.702;2022-11-20T05:30:05;-7.40;99.90
44463;DHT22;30170;52.190;8.702;2022-11-20T05:32:32;-7.10;99.90
44463;DHT22;30170;52.190;8.702;2022-11-20T05:34:59;-7.00;99.90
44463;DHT22;30170;52.190;8.702;2022-11-20T05:37:25;-7.00;99.90
44463;DHT22;30170;52.190;8.702;2022-11-20T05:39:52;-6.90;99.90
44463;DHT22;30170;52.190;8.702;2022-11-20T05:42:19;-6.90;99.90
44463;DHT22;30170;52.190;8.702;2022-11-20T05:44:58;-6.80;99.90
44463;DHT22;30170;52.190;8.702;2022-11-20T05:47:30;-6.10;99.90
44463;DHT22;30170;52.190;8.702;2022-11-20T05:49:58;-6.70;99.90
44463;DHT22;30170;52.190;8.702;2022-11-20T05:52:27;-6.80;99.90
44463;DHT22;30170;52.190;8.702;2022-11-20T05:54:54;-6.60;99.90
44463;DHT22;30170;52.190;8.702;2022-11-20T05:57:20;-6.60;99.90
44463;DHT22;30170;52.190;8.702;2022-11-20T05:59:47;-6.50;99.90
44463;DHT22;30170;52.190;8.702;2022-11-20T06:02:14;-6.50;99.90
44463;DHT22;30170;52.190;8.702;2022-11-20T06:04:41;-6.50;99.90
44463;DHT22;30170;52.190;8.702;2022-11-20T06:07:07;-6.60;99.90
44463;DHT22;30170;52.190;8.702;2022-11-20T06:09:34;-6.60;99.90
44463;DHT22;30170;52.190;8.702;2022-11-20T06:12:01;-6.50;99.90
44463;DHT22;30170;52.190;8.702;2022-11-20T06:14:27;-6.80;99.90
44463;DHT22;30170;52.190;8.702;2022-11-20T06:16:54;-6.80;99.90
44463;DHT22;30170;52.190;8.702;2022-11-20T06:19:21;-6.80;99.90
44463;DHT22;30170;52.190;8.702;2022-11-20T06:21:48;-6.70;99.90
44463;DHT22;30170;52.190;8.702;2022-11-20T06:24:16;-7.00;99.90
44463;DHT22;30170;52.190;8.702;2022-11-20T06:26:43;-7.10;99.90
44463;DHT22;30170;52.190;8.702;2022-11-20T06:29:09;-7.10;99.90
44463;DHT22;30170;52.190;8.702;2022-11-20T06:31:36;-7.00;99.90
44463;DHT22;30170;52.190;8.702;2022-11-20T06:34:04;-7.00;99.90
44463;DHT22;30170;52.190;8.702;2022-11-20T06:36:32;-6.80;99.90
44463;DHT22;30170;52.190;8.702;2022-11-20T06:38:59;-6.70;99.90
44463;DHT22;30170;52.190;8.702;2022-11-20T06:41:26;-6.90;99.90
44463;DHT22;30170;52.190;8.702;2022-11-20T06:43:54;-6.90;99.90
44463;DHT22;30170;52.190;8.702;2022-11-20T06:46:21;-6.90;99.90
44463;DHT22;30170;52.190;8.702;2022-11-20T06:48:48;-6.80;99.90
44463;DHT22;30170;52.190;8.702;2022-11-20T06:51:15;-6.80;99.90
44463;DHT22;30170;52.190;8.702;2022-11-20T06:53:42;-6.70;99.90
44463;DHT22;30170;52.190;8.702;2022-11-20T06:56:08;-6.60;99.90
44463;DHT22;30170;52.190;8.702;2022-11-20T06:58:35;-6.50;99.90
44463;DHT22;30170;52.190;8.702;2022-11-20T07:01:06;-6.40;99.90
44463;DHT22;30170;52.190;8.702;2022-11-20T07:03:34;-6.40;99.90
44463;DHT22;30170;52.190;8.702;2022-11-20T07:06:01;-6.40;99.90
44463;DHT22;30170;52.190;8.702;2022-11-20T07:08:28;-6.50;99.90
44463;DHT22;30170;52.190;8.702;2022-11-20T07:10:58;-6.40;99.90
44463;DHT22;30170;52.190;8.702;2022-11-20T07:13:26;-6.20;99.90
44463;DHT22;30170;52.190;8.702;2022-11-20T07:15:53;-6.20;99.90
44463;DHT22;30170;52.190;8.702;2022-11-20T07:18:20;-6.10;99.90
44463;DHT22;30170;52.190;8.702;2022-11-20T07:20:47;-5.90;99.90
44463;DHT22;30170;52.190;8.702;2022-11-20T07:23:14;-3.20;99.90
44463;DHT22;30170;52.190;8.702;2022-11-20T07:25:40;-5.60;99.90
44463;DHT22;30170;52.190;8.702;2022-11-20T07:28:07;-5.40;99.90
44463;DHT22;30170;52.190;8.702;2022-11-20T07:30:34;-5.10;99.90
44463;DHT22;30170;52.190;8.702;2022-11-20T07:33:00;-5.10;99.90
44463;DHT22;30170;52.190;8.702;2022-11-20T07:35:27;-4.90;99.90
44463;DHT22;30170;52.190;8.702;2022-11-20T07:37:54;-5.00;99.90
44463;DHT22;30170;52.190;8.702;2022-11-20T07:40:20;-4.80;99.90
44463;DHT22;30170;52.190;8.702;2022-11-20T07:42:51;-4.70;99.90
44463;DHT22;30170;52.190;8.702;2022-11-20T07:45:18;-4.60;99.90
44463;DHT22;30170;52.190;8.702;2022-11-20T07:47:45;-4.40;99.90
44463;DHT22;30170;52.190;8.702;2022-11-20T07:50:12;-4.30;99.90
44463;DHT22;30170;52.190;8.702;2022-11-20T07:52:39;-4.30;99.90
44463;DHT22;30170;52.190;8.702;2022-11-20T07:55:06;-4.10;99.90
44463;DHT22;30170;52.190;8.702;2022-11-20T07:57:33;-3.90;99.90
44463;DHT22;30170;52.190;8.702;2022-11-20T08:00:00;-3.80;99.90
44463;DHT22;30170;52.190;8.702;2022-11-20T08:02:27;-3.30;99.90
44463;DHT22;30170;52.190;8.702;2022-11-20T08:04:53;-3.60;99.90
44463;DHT22;30170;52.190;8.702;2022-11-20T08:07:20;-3.50;99.90
44463;DHT22;30170;52.190;8.702;2022-11-20T08:09:47;-3.70;99.90
44463;DHT22;30170;52.190;8.702;2022-11-20T08:12:20;-3.50;99.90
44463;DHT22;30170;52.190;8.702;2022-11-20T08:15:06;-3.30;99.90
44463;DHT22;30170;52.190;8.702;2022-11-20T08:17:38;-3.20;99.90
44463;DHT22;30170;52.190;8.702;2022-11-20T08:20:05;-3.10;99.90
44463;DHT22;30170;52.190;8.702;2022-11-20T08:22:32;-2.90;99.90
44463;DHT22;30170;52.190;8.702;2022-11-20T08:24:59;-1.30;99.90
44463;DHT22;30170;52.190;8.702;2022-11-20T08:27:25;-2.80;99.90
44463;DHT22;30170;52.190;8.702;2022-11-20T08:29:52;-0.20;99.90
44463;DHT22;30170;52.190;8.702;2022-11-20T08:32:19;-2.50;99.90
44463;DHT22;30170;52.190;8.702;2022-11-20T08:34:46;-2.50;99.90
44463;DHT22;30170;52.190;8.702;2022-11-20T08:37:12;-2.50;99.90
44463;DHT22;30170;52.190;8.702;2022-11-20T08:39:39;-2.30;99.90
44463;DHT22;30170;52.190;8.702;2022-11-20T08:42:06;-0.40;99.90
44463;DHT22;30170;52.190;8.702;2022-11-20T08:44:33;-2.00;99.90
44463;DHT22;30170;52.190;8.702;2022-11-20T08:47:00;-1.80;99.90
44463;DHT22;30170;52.190;8.702;2022-11-20T08:49:27;-2.20;99.90
44463;DHT22;30170;52.190;8.702;2022-11-20T08:51:54;-1.40;99.90
44463;DHT22;30170;52.190;8.702;2022-11-20T08:54:21;-2.20;99.90
44463;DHT22;30170;52.190;8.702;2022-11-20T08:56:49;-1.40;99.90
44463;DHT22;30170;52.190;8.702;2022-11-20T08:59:15;-2.10;99.90
44463;DHT22;30170;52.190;8.702;2022-11-20T09:02:02;-2.10;99.90
44463;DHT22;30170;52.190;8.702;2022-11-20T09:04:28;-2.10;99.90
44463;DHT22;30170;52.190;8.702;2022-11-20T09:06:55;-2.00;99.90
44463;DHT22;30170;52.190;8.702;2022-11-20T09:09:22;-1.90;99.90
44463;DHT22;30170;52.190;8.702;2022-11-20T09:11:49;-0.20;99.90
44463;DHT22;30170;52.190;8.702;2022-11-20T09:14:16;0.10;99.90
44463;DHT22;30170;52.190;8.702;2022-11-20T09:16:44;-0.70;99.90
44463;DHT22;30170;52.190;8.702;2022-11-20T09:19:11;-2.20;99.90
44463;DHT22;30170;52.190;8.702;2022-11-20T09:21:58;-2.30;99.90
44463;DHT22;30170;52.190;8.702;2022-11-20T09:24:26;-2.30;99.90
44463;DHT22;30170;52.190;8.702;2022-11-20T09:26:53;-2.70;99.90
44463;DHT22;30170;52.190;8.702;2022-11-20T09:29:20;-2.10;99.90
44463;DHT22;30170;52.190;8.702;2022-11-20T09:31:46;-1.80;99.90
44463;DHT22;30170;52.190;8.702;2022-11-20T09:34:13;-1.40;99.90
44463;DHT22;30170;52.190;8.702;2022-11-20T09:36:40;-1.00;99.90
44463;DHT22;30170;52.190;8.702;2022-11-20T09:39:07;-0.80;99.90
44463;DHT22;30170;52.190;8.702;2022-11-20T09:49:31;-0.20;99.90
44463;DHT22;30170;52.190;8.702;2022-11-20T09:52:05;-0.40;99.90
44463;DHT22;30170;52.190;8.702;2022-11-20T09:54:35;-0.10;99.90
44463;DHT22;30170;52.190;8.702;2022-11-20T09:57:03;-0.20;99.90
44463;DHT22;30170;52.190;8.702;2022-11-20T10:02:11;-0.60;99.90
44463;DHT22;30170;52.190;8.702;2022-11-20T10:04:43;0.40;99.90
44463;DHT22;30170;52.190;8.702;2022-11-20T10:07:16;-0.80;99.90
44463;DHT22;30170;52.190;8.702;2022-11-20T10:09:59;-0.30;99.90
44463;DHT22;30170;52.190;8.702;2022-11-20T10:17:57;0.00;99.90
44463;DHT22;30170;52.190;8.702;2022-11-20T10:20:48;0.80;99.90
44463;DHT22;30170;52.190;8.702;2022-11-20T10:31:00;1.00;99.90
44463;DHT22;30170;52.190;8.702;2022-11-20T10:33:29;1.40;99.90
44463;DHT22;30170;52.190;8.702;2022-11-20T10:36:19;1.10;99.90
44463;DHT22;30170;52.190;8.702;2022-11-20T10:38:57;1.20;99.90
44463;DHT22;30170;52.190;8.702;2022-11-20T10:41:32;1.30;99.90
44463;DHT22;30170;52.190;8.702;2022-11-20T10:44:03;1.30;99.90
44463;DHT22;30170;52.190;8.702;2022-11-20T10:46:39;1.80;99.90
44463;DHT22;30170;52.190;8.702;2022-11-20T10:49:14;1.70;99.90
44463;DHT22;30170;52.190;8.702;2022-11-20T10:51:52;1.90;99.90
44463;DHT22;30170;52.190;8.702;2022-11-20T10:57:17;2.60;99.90
44463;DHT22;30170;52.190;8.702;2022-11-20T11:00:07;2.30;99.90
44463;DHT22;30170;52.190;8.702;2022-11-20T11:02:48;3.00;99.90
44463;DHT22;30170;52.190;8.702;2022-11-20T11:07:52;3.00;99.90
44463;DHT22;30170;52.190;8.702;2022-11-20T11:12:52;3.40;99.90
44463;DHT22;30170;52.190;8.702;2022-11-20T11:15:29;5.50;99.90
44463;DHT22;30170;52.190;8.702;2022-11-20T11:17:56;3.60;99.90
44463;DHT22;30170;52.190;8.702;2022-11-20T11:20:23;4.20;99.90
44463;DHT22;30170;52.190;8.702;2022-11-20T11:25:21;5.20;99.90
44463;DHT22;30170;52.190;8.702;2022-11-20T11:27:49;5.50;99.60
44463;DHT22;30170;52.190;8.702;2022-11-20T11:30:17;5.80;99.90
44463;DHT22;30170;52.190;8.702;2022-11-20T11:32:44;5.70;99.90
44463;DHT22;30170;52.190;8.702;2022-11-20T11:35:33;6.50;94.70
44463;DHT22;30170;52.190;8.702;2022-11-20T11:38:03;7.20;91.70
44463;DHT22;30170;52.190;8.702;2022-11-20T11:40:34;7.70;80.70
44463;DHT22;30170;52.190;8.702;2022-11-20T11:43:04;7.90;79.00
44463;DHT22;30170;52.190;8.702;2022-11-20T11:45:31;8.20;78.00
44463;DHT22;30170;52.190;8.702;2022-11-20T11:47:58;9.50;73.30
44463;DHT22;30170;52.190;8.702;2022-11-20T11:50:27;11.60;67.40
44463;DHT22;30170;52.190;8.702;2022-11-20T11:53:14;13.80;67.10
44463;DHT22;30170;52.190;8.702;2022-11-20T11:56:05;14.90;66.00
44463;DHT22;30170;52.190;8.702;2022-11-20T12:01:08;15.90;61.70
44463;DHT22;30170;52.190;8.702;2022-11-20T12:03:50;16.70;60.90
44463;DHT22;30170;52.190;8.702;2022-11-20T12:13:17;16.70;59.70
44463;DHT22;30170;52.190;8.702;2022-11-20T12:15:47;15.30;58.90
44463;DHT22;30170;52.190;8.702;2022-11-20T12:18:15;15.00;61.80
44463;DHT22;30170;52.190;8.702;2022-11-20T12:20:45;15.40;63.60
44463;DHT22;30170;52.190;8.702;2022-11-20T12:23:22;15.70;61.40
44463;DHT22;30170;52.190;8.702;2022-11-20T12:25:54;15.20;62.30
44463;DHT22;30170;52.190;8.702;2022-11-20T12:31:01;14.70;62.40
44463;DHT22;30170;52.190;8.702;2022-11-20T12:36:36;15.30;62.00
44463;DHT22;30170;52.190;8.702;2022-11-20T12:38:59;16.00;60.60
44463;DHT22;30170;52.190;8.702;2022-11-20T12:52:56;12.30;62.30
44463;DHT22;30170;52.190;8.702;2022-11-20T12:57:55;10.90;63.90
44463;DHT22;30170;52.190;8.702;2022-11-20T13:00:24;10.90;63.50
44463;DHT22;30170;52.190;8.702;2022-11-20T13:08:03;9.90;62.80
44463;DHT22;30170;52.190;8.702;2022-11-20T13:13:30;12.00;62.50
44463;DHT22;30170;52.190;8.702;2022-11-20T13:18:27;13.20;58.70
44463;DHT22;30170;52.190;8.702;2022-11-20T13:20:56;14.50;62.10
44463;DHT22;30170;52.190;8.702;2022-11-20T13:23:26;14.70;58.20
44463;DHT22;30170;52.190;8.702;2022-11-20T13:26:36;13.70;58.70
44463;DHT22;30170;52.190;8.702;2022-11-20T13:28:44;13.40;57.70
44463;DHT22;30170;52.190;8.702;2022-11-20T13:31:27;12.30;58.10
44463;DHT22;30170;52.190;8.702;2022-11-20T13:33:54;11.00;57.90
44463;DHT22;30170;52.190;8.702;2022-11-20T13:36:23;10.00;62.10
44463;DHT22;30170;52.190;8.702;2022-11-20T13:38:50;10.00;62.00
44463;DHT22;30170;52.190;8.702;2022-11-20T13:41:28;9.70;61.80
44463;DHT22;30170;52.190;8.702;2022-11-20T13:43:59;9.80;62.30
44463;DHT22;30170;52.190;8.702;2022-11-20T13:46:41;9.30;61.00
44463;DHT22;30170;52.190;8.702;2022-11-20T13:57:07;7.50;64.00
44463;DHT22;30170;52.190;8.702;2022-11-20T14:02:16;6.70;66.20
44463;DHT22;30170;52.190;8.702;2022-11-20T14:04:45;7.20;66.40
44463;DHT22;30170;52.190;8.702;2022-11-20T14:07:12;8.10;67.20
44463;DHT22;30170;52.190;8.702;2022-11-20T14:09:48;8.60;66.10
44463;DHT22;30170;52.190;8.702;2022-11-20T14:12:15;7.80;65.10
44463;DHT22;30170;52.190;8.702;2022-11-20T14:14:52;6.80;66.70
44463;DHT22;30170;52.190;8.702;2022-11-20T14:19:55;5.70;69.70
44463;DHT22;30170;52.190;8.702;2022-11-20T14:22:25;5.70;74.90
44463;DHT22;30170;52.190;8.702;2022-11-20T14:27:28;5.60;76.00
44463;DHT22;30170;52.190;8.702;2022-11-20T14:29:55;5.60;74.60
44463;DHT22;30170;52.190;8.702;2022-11-20T14:32:22;5.40;78.40
44463;DHT22;30170;52.190;8.702;2022-11-20T14:34:52;5.40;80.60
44463;DHT22;30170;52.190;8.702;2022-11-20T14:37:28;4.70;84.20
44463;DHT22;30170;52.190;8.702;2022-11-20T14:39:59;4.40;87.70
44463;DHT22;30170;52.190;8.702;2022-11-20T14:42:28;4.80;94.70
44463;DHT22;30170;52.190;8.702;2022-11-20T14:44:55;4.20;97.60
44463;DHT22;30170;52.190;8.702;2022-11-20T14:47:29;3.70;99.90
44463;DHT22;30170;52.190;8.702;2022-11-20T14:49:57;3.40;99.90
44463;DHT22;30170;52.190;8.702;2022-11-20T14:52:25;3.10;99.90
44463;DHT22;30170;52.190;8.702;2022-11-20T14:54:53;3.10;99.90
44463;DHT22;30170;52.190;8.702;2022-11-20T15:00:06;2.70;99.90
44463;DHT22;30170;52.190;8.702;2022-11-20T15:02:33;2.50;99.90
44463;DHT22;30170;52.190;8.702;2022-11-20T15:05:00;2.80;99.90
44463;DHT22;30170;52.190;8.702;2022-11-20T15:07:35;2.60;99.90
44463;DHT22;30170;52.190;8.702;2022-11-20T15:12:33;1.80;99.90
44463;DHT22;30170;52.190;8.702;2022-11-20T15:15:01;2.80;99.90
44463;DHT22;30170;52.190;8.702;2022-11-20T15:17:29;1.40;99.90
44463;DHT22;30170;52.190;8.702;2022-11-20T15:19:56;0.90;99.90
44463;DHT22;30170;52.190;8.702;2022-11-20T15:22:23;1.00;99.90
44463;DHT22;30170;52.190;8.702;2022-11-20T15:24:50;1.00;99.90
44463;DHT22;30170;52.190;8.702;2022-11-20T15:27:16;2.50;99.90
44463;DHT22;30170;52.190;8.702;2022-11-20T15:29:43;1.80;99.90
44463;DHT22;30170;52.190;8.702;2022-11-20T15:32:10;0.90;99.90
44463;DHT22;30170;52.190;8.702;2022-11-20T15:34:39;0.70;99.90
44463;DHT22;30170;52.190;8.702;2022-11-20T15:37:06;0.70;99.90
44463;DHT22;30170;52.190;8.702;2022-11-20T15:39:32;0.60;99.90
44463;DHT22;30170;52.190;8.702;2022-11-20T15:41:59;0.70;99.90
44463;DHT22;30170;52.190;8.702;2022-11-20T15:44:26;1.30;99.90
44463;DHT22;30170;52.190;8.702;2022-11-20T15:46:52;1.70;99.90
44463;DHT22;30170;52.190;8.702;2022-11-20T15:49:19;0.60;99.90
44463;DHT22;30170;52.190;8.702;2022-11-20T15:51:48;2.10;99.90
44463;DHT22;30170;52.190;8.702;2022-11-20T15:54:16;0.60;99.90
44463;DHT22;30170;52.190;8.702;2022-11-20T15:56:47;0.70;99.90
44463;DHT22;30170;52.190;8.702;2022-11-20T15:59:14;0.60;99.90
44463;DHT22;30170;52.190;8.702;2022-11-20T16:01:41;0.70;99.90
44463;DHT22;30170;52.190;8.702;2022-11-20T16:04:09;0.40;99.90
44463;DHT22;30170;52.190;8.702;2022-11-20T16:06:36;0.40;99.90
44463;DHT22;30170;52.190;8.702;2022-11-20T16:09:03;0.70;99.90
44463;DHT22;30170;52.190;8.702;2022-11-20T16:11:30;0.50;99.90
44463;DHT22;30170;52.190;8.702;2022-11-20T16:13:57;0.10;99.90
44463;DHT22;30170;52.190;8.702;2022-11-20T16:16:43;-0.10;99.90
44463;DHT22;30170;52.190;8.702;2022-11-20T16:19:13;-0.10;99.90
44463;DHT22;30170;52.190;8.702;2022-11-20T16:21:40;-0.20;99.90
44463;DHT22;30170;52.190;8.702;2022-11-20T16:24:11;-0.40;99.90
44463;DHT22;30170;52.190;8.702;2022-11-20T16:26:39;-0.30;99.90
44463;DHT22;30170;52.190;8.702;2022-11-20T16:29:06;0.40;99.90
44463;DHT22;30170;52.190;8.702;2022-11-20T16:31:33;-0.40;99.90
44463;DHT22;30170;52.190;8.702;2022-11-20T16:34:02;-0.50;99.90
44463;DHT22;30170;52.190;8.702;2022-11-20T16:36:38;0.80;99.90
44463;DHT22;30170;52.190;8.702;2022-11-20T16:39:05;-0.10;99.90
44463;DHT22;30170;52.190;8.702;2022-11-20T16:41:33;1.80;99.90
44463;DHT22;30170;52.190;8.702;2022-11-20T16:44:01;0.10;99.90
44463;DHT22;30170;52.190;8.702;2022-11-20T16:46:28;0.70;99.90
44463;DHT22;30170;52.190;8.702;2022-11-20T16:48:56;1.60;99.90
44463;DHT22;30170;52.190;8.702;2022-11-20T16:51:24;1.70;99.90
44463;DHT22;30170;52.190;8.702;2022-11-20T16:53:52;0.50;99.90
44463;DHT22;30170;52.190;8.702;2022-11-20T16:56:19;0.50;99.90
44463;DHT22;30170;52.190;8.702;2022-11-20T16:58:47;0.70;99.90
44463;DHT22;30170;52.190;8.702;2022-11-20T17:01:15;1.60;99.90
44463;DHT22;30170;52.190;8.702;2022-11-20T17:03:42;0.60;99.90
44463;DHT22;30170;52.190;8.702;2022-11-20T17:06:16;0.70;99.90
44463;DHT22;30170;52.190;8.702;2022-11-20T17:08:44;1.00;99.90
44463;DHT22;30170;52.190;8.702;2022-11-20T17:11:12;0.80;99.90
44463;DHT22;30170;52.190;8.702;2022-11-20T17:13:39;1.20;99.90
44463;DHT22;30170;52.190;8.702;2022-11-20T17:16:07;0.90;99.90
44463;DHT22;30170;52.190;8.702;2022-11-20T17:18:34;1.00;99.90
44463;DHT22;30170;52.190;8.702;2022-11-20T17:21:01;0.90;99.90
44463;DHT22;30170;52.190;8.702;2022-11-20T17:23:31;1.00;99.90
44463;DHT22;30170;52.190;8.702;2022-11-20T17:26:09;0.90;99.90
44463;DHT22;30170;52.190;8.702;2022-11-20T17:28:36;0.90;99.90
44463;DHT22;30170;52.190;8.702;2022-11-20T17:31:04;0.70;99.90